Ana Sayfa
METAR-TAF:

METAR-TAF

Havaalanları :

Samaná, Dominik Cumhuriyeti

Enlem: 19-16-12N, Boylam: 69-44-15W, yükseklik: 4 m

Güncel hava durumu gözlemi

Rapor saat 00:00 UTC de 5 saat ve 39 dakika önce yapıldı.
Rüzgar doğudan 15 kt
Sıcaklık 28°C
Nem 89%
Basınç 1015 hPa
Görüş mesafesi 10 km veya daha fazla
1800 ft yükseklikte az bulutlu

METAR: MDCY 160000Z 09015KT 9999 FEW018 28/26 Q1015

Saat: 01:39 (05:39 UTC)

Tahmin

Rapor saat 22:00 UTC de 7 saat ve 39 dakika önce yapıldı.
Ayın 16'si saat 00 UTC'den ayın 17'si saat 00 UTC'ye kadar geçerli Tahmin
Rüzgar doğudan 10 kt
Görüş mesafesi 10 km veya daha fazla
1800 ft yükseklikte az bulutlu
30000 ft yükseklikte parçalı bulutlu
Dönüşüyor
ayın 16'si saat 02 UTC'den ayın 16'si saat 04 UTC'ye kadar
Rüzgar kuzeydan kt

TAF: MDCY 152200Z 1600/1700 09010KT 9999 FEW018 SCT300 BECMG 1602/1604 00000KT

4.000'den fazla havaalanı için hava durumu gözlemleri ve tahminleri (METAR ve TAF raporları).

Kullanılabilir istasyonlar harita üzerinde sarı ve kırmızı noktalarla gösterilir.

İstasyonun adını görmek için fareyi noktanın üzerinde gezdirin.

Sonrasında hava gözlem ve tahminlerini görmek için tıklayın.

Haritayı değiştirmek için: yaklaştırmak için siyah artı işaretli yeşil düğmeye ve uzaklaştırmak için de eksi işaretli düğmeye hızla tıklayın; bitişik haritalar için yeşil okları kullanın.


METAR-TAF: